Time;durP1;ratioP1;P1;durP2;ratioP2;P2;SDS_P1;SDS_P2;PMS_P1;PMS_P2;Temp;Humidity;BMP_temperature;BMP_pressure;BME280_temperature;BME280_humidity;BME280_pressure;Samples;Min_cycle;Max_cycle;Signal;HPM_P1;HPM_P2
2023/11/10 00:01:51;;;;;;;2.42;0.40;;;7.00;99.90;;;;;;4926734;28;20388;-80
2023/11/10 00:04:19;;;;;;;2.00;0.40;;;7.00;99.90;;;;;;4919847;29;20043;-81
2023/11/10 00:06:45;;;;;;;1.40;0.68;;;7.00;99.90;;;;;;4925204;28;20055;-84
2023/11/10 00:09:14;;;;;;;0.98;0.35;;;7.00;99.90;;;;;;4928147;28;20028;-82
2023/11/10 00:11:41;;;;;;;1.37;0.70;;;6.90;99.90;;;;;;4934991;29;20043;-80
2023/11/10 00:14:07;;;;;;;1.50;0.38;;;6.90;99.90;;;;;;4928432;28;20098;-82
2023/11/10 00:16:33;;;;;;;1.85;0.50;;;6.80;99.90;;;;;;4925321;28;20484;-79
2023/11/10 00:18:59;;;;;;;2.38;0.47;;;6.80;99.90;;;;;;4926142;28;20097;-81
2023/11/10 00:21:24;;;;;;;1.52;0.30;;;6.80;99.90;;;;;;4935193;28;20028;-82
2023/11/10 00:23:52;;;;;;;1.67;0.30;;;6.80;99.90;;;;;;4938384;28;20101;-81
2023/11/10 00:26:25;;;;;;;1.98;0.40;;;6.80;99.90;;;;;;4925198;28;20082;-82
2023/11/10 00:28:52;;;;;;;1.58;0.45;;;6.80;99.90;;;;;;4937085;28;20043;-83
2023/11/10 00:31:18;;;;;;;1.38;0.55;;;6.90;99.90;;;;;;4923773;28;20031;-82
2023/11/10 00:33:45;;;;;;;1.15;0.10;;;6.90;99.90;;;;;;4924881;28;20442;-83
2023/11/10 00:36:11;;;;;;;0.68;0.20;;;6.90;99.90;;;;;;4928060;29;20035;-82
2023/11/10 00:38:36;;;;;;;0.40;0.10;;;6.90;99.90;;;;;;4931589;28;20032;-80
2023/11/10 00:41:02;;;;;;;0.65;0.20;;;6.90;99.90;;;;;;4936139;28;20123;-81
2023/11/10 00:43:27;;;;;;;2.13;0.22;;;6.90;99.90;;;;;;4927362;28;20118;-86
2023/11/10 00:45:56;;;;;;;1.90;0.20;;;6.90;99.90;;;;;;4922054;29;20114;-85
2023/11/10 00:48:22;;;;;;;1.30;0.20;;;6.90;99.90;;;;;;4922325;28;20808;-82
2023/11/10 00:50:47;;;;;;;2.95;0.52;;;6.90;99.90;;;;;;4926818;28;20044;-82
2023/11/10 00:53:13;;;;;;;1.33;0.20;;;6.90;99.90;;;;;;4939583;29;20039;-81
2023/11/10 00:55:39;;;;;;;1.25;0.30;;;7.00;99.90;;;;;;4929077;28;20031;-82
2023/11/10 00:58:05;;;;;;;1.80;0.20;;;7.00;99.90;;;;;;4926449;28;20036;-82
2023/11/10 01:00:31;;;;;;;0.90;0.20;;;7.00;99.90;;;;;;4932552;28;20535;-84
2023/11/10 01:02:57;;;;;;;0.60;0.20;;;7.00;99.90;;;;;;4919155;29;20019;-80
2023/11/10 01:05:23;;;;;;;1.77;0.20;;;7.00;99.90;;;;;;4926902;28;20116;-81
2023/11/10 01:07:48;;;;;;;2.55;0.20;;;7.00;99.90;;;;;;4912367;28;20043;-79
2023/11/10 01:10:14;;;;;;;0.82;0.13;;;7.10;99.90;;;;;;4923863;28;20116;-81
2023/11/10 01:12:40;;;;;;;2.13;0.20;;;7.10;99.90;;;;;;4926712;28;20044;-82
2023/11/10 01:15:16;;;;;;;1.25;0.20;;;7.10;99.90;;;;;;4934639;28;20043;-83
2023/11/10 01:17:43;;;;;;;1.30;0.30;;;7.10;99.90;;;;;;4927702;28;20040;-82
2023/11/10 01:20:10;;;;;;;1.80;0.30;;;7.10;99.90;;;;;;4934226;29;20104;-81
2023/11/10 01:22:38;;;;;;;1.05;0.20;;;7.10;99.90;;;;;;4923004;28;20043;-83
2023/11/10 01:25:05;;;;;;;1.52;0.20;;;7.20;99.90;;;;;;4935276;28;20380;-80
2023/11/10 01:27:31;;;;;;;1.40;0.10;;;7.20;99.90;;;;;;4922230;28;20155;-80
2023/11/10 01:29:56;;;;;;;1.40;0.22;;;7.20;99.90;;;;;;4927197;29;20032;-79
2023/11/10 01:32:23;;;;;;;1.77;0.20;;;7.20;99.90;;;;;;4931427;28;20362;-83
2023/11/10 01:34:48;;;;;;;0.88;0.20;;;7.20;99.90;;;;;;4934511;28;20056;-82
2023/11/10 01:37:14;;;;;;;1.40;0.20;;;7.30;99.90;;;;;;4934261;28;20028;-84
2023/11/10 01:39:40;;;;;;;0.88;0.10;;;7.30;99.90;;;;;;4910781;28;20050;-86
2023/11/10 01:42:08;;;;;;;1.02;0.20;;;7.30;99.90;;;;;;4936585;28;20059;-85
2023/11/10 01:44:35;;;;;;;3.08;0.30;;;7.30;99.90;;;;;;4927160;28;20079;-86
2023/11/10 01:47:03;;;;;;;0.70;0.20;;;7.30;99.90;;;;;;4923412;28;20031;-88
2023/11/10 01:49:29;;;;;;;2.42;0.20;;;7.30;99.90;;;;;;4925667;28;20031;-84
2023/11/10 01:51:55;;;;;;;0.75;0.15;;;7.30;99.90;;;;;;4919983;28;20545;-85
2023/11/10 01:54:24;;;;;;;1.10;0.20;;;7.30;99.90;;;;;;4936192;29;20024;-83
2023/11/10 01:56:51;;;;;;;1.17;0.20;;;7.30;99.90;;;;;;4920233;29;20125;-87
2023/11/10 01:59:19;;;;;;;0.88;0.17;;;7.30;99.90;;;;;;4922226;28;20033;-82
2023/11/10 02:01:46;;;;;;;1.50;0.20;;;7.30;99.90;;;;;;4919314;28;20432;-83
2023/11/10 02:04:12;;;;;;;1.90;0.20;;;7.40;99.90;;;;;;4927841;28;20027;-82
2023/11/10 02:06:44;;;;;;;1.30;0.20;;;7.40;99.90;;;;;;4923745;28;20058;-82
2023/11/10 02:09:11;;;;;;;1.33;0.15;;;7.40;99.90;;;;;;4923008;28;20394;-87
2023/11/10 02:11:40;;;;;;;1.27;0.40;;;7.40;99.90;;;;;;4934302;28;20067;-87
2023/11/10 02:14:10;;;;;;;1.95;0.20;;;7.40;99.90;;;;;;4937109;28;20031;-83
2023/11/10 02:16:36;;;;;;;0.95;0.20;;;7.40;99.90;;;;;;4924142;28;20715;-84
2023/11/10 02:19:04;;;;;;;1.00;0.20;;;7.40;99.90;;;;;;4937983;28;20031;-89
2023/11/10 02:21:30;;;;;;;0.77;0.20;;;7.40;99.90;;;;;;4934555;28;20028;-88
2023/11/10 02:23:57;;;;;;;1.25;0.20;;;7.40;99.90;;;;;;4935617;28;20373;-83
2023/11/10 02:26:27;;;;;;;2.65;0.20;;;7.40;99.90;;;;;;4919199;28;20036;-87
2023/11/10 02:28:53;;;;;;;2.15;0.20;;;7.40;99.90;;;;;;4935283;28;20055;-85
2023/11/10 02:31:19;;;;;;;1.95;0.30;;;7.40;99.90;;;;;;4920056;28;20068;-82
2023/11/10 02:33:46;;;;;;;0.98;0.20;;;7.40;99.90;;;;;;4932286;28;20024;-83
2023/11/10 02:36:12;;;;;;;1.48;0.20;;;7.40;99.90;;;;;;4930734;28;20388;-81
2023/11/10 02:38:39;;;;;;;1.30;0.20;;;7.50;99.90;;;;;;4920141;29;20619;-82
2023/11/10 02:41:05;;;;;;;1.33;0.25;;;7.50;99.90;;;;;;4921021;28;20044;-88
2023/11/10 02:43:32;;;;;;;4.78;0.40;;;7.50;99.90;;;;;;4917737;28;20131;-84
2023/11/10 02:45:58;;;;;;;0.75;0.25;;;7.50;99.90;;;;;;4925979;28;20044;-84
2023/11/10 02:48:23;;;;;;;0.70;0.20;;;7.50;99.90;;;;;;4922203;28;20029;-82
2023/11/10 02:50:49;;;;;;;2.30;0.30;;;7.50;99.90;;;;;;4924896;28;20028;-85
2023/11/10 02:53:15;;;;;;;1.60;0.30;;;7.50;99.90;;;;;;4934395;29;20024;-88
2023/11/10 02:55:41;;;;;;;1.70;0.30;;;7.50;99.90;;;;;;4932968;28;20062;-86
2023/11/10 02:58:06;;;;;;;1.08;0.20;;;7.50;99.90;;;;;;4908876;28;20044;-86
2023/11/10 03:00:32;;;;;;;1.58;0.30;;;7.50;99.90;;;;;;4912424;28;20063;-88
2023/11/10 03:02:58;;;;;;;2.35;0.30;;;7.50;99.90;;;;;;4925637;28;20039;-86
2023/11/10 03:05:24;;;;;;;1.35;0.30;;;7.50;99.90;;;;;;4921231;28;20028;-82
2023/11/10 03:07:50;;;;;;;1.23;0.30;;;7.40;99.90;;;;;;4925562;28;20181;-87
2023/11/10 03:10:16;;;;;;;3.13;0.30;;;7.40;99.90;;;;;;4920173;29;20113;-85
2023/11/10 03:12:43;;;;;;;2.58;0.47;;;7.50;99.90;;;;;;4920664;28;20032;-88
2023/11/10 03:15:09;;;;;;;1.40;0.30;;;7.40;99.90;;;;;;4920261;28;20039;-87
2023/11/10 03:17:35;;;;;;;2.38;0.30;;;7.40;99.90;;;;;;4932223;28;20060;-84
2023/11/10 03:20:02;;;;;;;1.15;0.40;;;7.40;99.90;;;;;;4929540;28;20029;-86
2023/11/10 03:22:28;;;;;;;1.58;0.40;;;7.50;99.90;;;;;;4931107;28;20119;-86
2023/11/10 03:24:54;;;;;;;2.20;0.30;;;7.50;99.90;;;;;;4934260;28;20063;-88
2023/11/10 03:27:21;;;;;;;1.50;0.32;;;7.50;99.90;;;;;;4921999;28;20047;-81
2023/11/10 03:29:47;;;;;;;2.67;0.32;;;7.50;99.90;;;;;;4928866;29;20089;-84
2023/11/10 03:32:14;;;;;;;1.98;0.50;;;7.50;99.90;;;;;;4934622;28;20074;-83
2023/11/10 03:34:40;;;;;;;1.83;0.30;;;7.50;99.90;;;;;;4927886;28;20038;-81
2023/11/10 03:37:08;;;;;;;2.33;0.40;;;7.50;99.90;;;;;;4923678;28;20032;-83
2023/11/10 03:39:33;;;;;;;1.55;0.40;;;7.50;99.90;;;;;;4934840;28;20162;-87
2023/11/10 03:42:00;;;;;;;3.13;0.30;;;7.50;99.90;;;;;;4913490;28;20572;-84
2023/11/10 03:44:28;;;;;;;1.95;0.40;;;7.50;99.90;;;;;;4921880;29;20107;-83
2023/11/10 03:46:55;;;;;;;1.50;0.30;;;7.50;99.90;;;;;;4936163;29;20039;-82
2023/11/10 03:49:20;;;;;;;1.42;0.30;;;7.50;99.90;;;;;;4924375;28;20043;-83
2023/11/10 03:51:47;;;;;;;1.02;0.22;;;7.50;99.90;;;;;;4922292;28;20048;-84
2023/11/10 03:54:14;;;;;;;1.17;0.20;;;7.50;99.90;;;;;;4928541;28;20028;-82
2023/11/10 03:56:40;;;;;;;0.85;0.35;;;7.50;99.90;;;;;;4927661;28;20507;-83
2023/11/10 03:59:07;;;;;;;2.85;0.30;;;7.50;99.90;;;;;;4924969;28;20027;-87
2023/11/10 04:01:33;;;;;;;1.77;0.30;;;7.50;99.90;;;;;;4935428;28;20028;-82
2023/11/10 04:04:03;;;;;;;2.15;0.30;;;7.50;99.90;;;;;;4923696;28;20020;-84
2023/11/10 04:06:29;;;;;;;;;;;7.60;99.90;;;;;;4926012;28;20047;-83
2023/11/10 04:08:55;;;;;;;2.13;0.20;;;7.60;99.90;;;;;;4935372;28;19915;-83
2023/11/10 04:11:21;;;;;;;1.15;0.20;;;7.60;99.90;;;;;;4929878;28;20210;-83
2023/11/10 04:13:47;;;;;;;1.08;0.20;;;7.50;99.90;;;;;;4934472;28;20040;-81
2023/11/10 04:16:16;;;;;;;1.17;0.20;;;7.60;99.90;;;;;;4922824;28;20031;-83
2023/11/10 04:18:45;;;;;;;0.70;0.20;;;7.60;99.90;;;;;;4927186;28;20039;-82
2023/11/10 04:21:11;;;;;;;0.60;0.10;;;7.50;99.90;;;;;;4933799;28;20387;-87
2023/11/10 04:23:37;;;;;;;2.55;0.60;;;7.50;99.90;;;;;;4923701;28;20044;-81
2023/11/10 04:26:06;;;;;;;2.38;0.20;;;7.50;99.90;;;;;;4934779;29;20036;-82
2023/11/10 04:28:34;;;;;;;0.88;0.20;;;7.60;99.90;;;;;;4923455;28;20158;-83
2023/11/10 04:31:01;;;;;;;0.90;0.20;;;7.60;99.90;;;;;;4923207;28;20086;-83
2023/11/10 04:33:27;;;;;;;2.55;0.20;;;7.60;99.90;;;;;;4908629;28;20047;-84
2023/11/10 04:35:54;;;;;;;2.22;0.40;;;7.60;99.90;;;;;;4937157;28;20032;-83
2023/11/10 04:38:19;;;;;;;0.93;0.20;;;7.60;99.90;;;;;;4925689;28;20039;-84
2023/11/10 04:40:45;;;;;;;1.50;0.10;;;7.60;99.90;;;;;;4930484;28;20040;-82
2023/11/10 04:43:11;;;;;;;1.33;0.10;;;7.60;99.90;;;;;;4935849;29;20059;-80
2023/11/10 04:45:37;;;;;;;0.73;0.13;;;7.60;99.90;;;;;;4923480;28;20040;-83
2023/11/10 04:48:04;;;;;;;1.85;0.17;;;7.60;99.90;;;;;;4922918;28;20028;-84
2023/11/10 04:50:30;;;;;;;2.67;0.20;;;7.60;99.90;;;;;;4925098;28;20035;-84
2023/11/10 04:52:56;;;;;;;2.08;0.10;;;7.60;99.90;;;;;;4929419;28;20039;-84
2023/11/10 04:55:25;;;;;;;0.50;0.10;;;7.60;99.90;;;;;;4921984;28;20024;-86
2023/11/10 04:57:50;;;;;;;0.75;0.10;;;7.60;99.90;;;;;;4936478;28;20141;-87
2023/11/10 05:00:16;;;;;;;0.85;0.10;;;7.50;99.90;;;;;;4936491;28;20059;-84
2023/11/10 05:02:46;;;;;;;0.70;0.10;;;7.60;99.90;;;;;;4925835;28;20028;-82
2023/11/10 05:05:15;;;;;;;0.95;0.10;;;7.50;99.90;;;;;;4921047;28;20070;-81
2023/11/10 05:07:41;;;;;;;2.85;0.13;;;7.50;99.90;;;;;;4937949;28;20052;-81
2023/11/10 05:10:08;;;;;;;0.63;0.10;;;7.50;99.90;;;;;;4925576;28;20063;-82
2023/11/10 05:12:36;;;;;;;1.25;0.13;;;7.50;99.90;;;;;;4936580;28;20085;-84
2023/11/10 05:15:06;;;;;;;1.55;0.10;;;7.50;99.90;;;;;;4923541;28;20174;-85
2023/11/10 05:17:45;;;;;;;2.33;0.20;;;7.50;99.90;;;;;;4926900;28;20447;-86
2023/11/10 05:20:12;;;;;;;0.73;0.10;;;7.50;99.90;;;;;;4919164;28;20078;-86
2023/11/10 05:22:40;;;;;;;1.48;0.10;;;7.50;99.90;;;;;;4926199;29;20583;-83
2023/11/10 05:25:06;;;;;;;0.63;0.10;;;7.50;99.90;;;;;;4935002;28;20396;-83
2023/11/10 05:27:32;;;;;;;0.82;0.10;;;7.50;99.90;;;;;;4934358;28;20549;-83
2023/11/10 05:29:58;;;;;;;0.82;0.20;;;7.50;99.90;;;;;;4923746;28;20123;-85
2023/11/10 05:32:23;;;;;;;1.13;0.20;;;7.50;99.90;;;;;;4926044;28;20488;-87
2023/11/10 05:34:54;;;;;;;1.65;0.20;;;7.60;99.90;;;;;;4905748;28;20031;-82
2023/11/10 05:37:24;;;;;;;;;;;7.50;99.90;;;;;;4937910;28;20174;-84
2023/11/10 05:39:53;;;;;;;0.40;0.10;;;7.60;99.90;;;;;;4939414;28;19922;-85
2023/11/10 05:42:22;;;;;;;1.13;0.20;;;7.60;99.90;;;;;;4918371;28;20055;-89
2023/11/10 05:44:49;;;;;;;1.27;0.20;;;7.60;99.90;;;;;;4937628;28;20032;-84
2023/11/10 05:47:15;;;;;;;2.42;0.20;;;7.60;99.90;;;;;;4925576;28;20052;-83
2023/11/10 05:49:41;;;;;;;2.58;0.20;;;7.60;99.90;;;;;;4927210;28;20042;-82
2023/11/10 05:52:09;;;;;;;2.40;0.20;;;7.60;99.90;;;;;;4927333;28;20426;-84
2023/11/10 05:54:34;;;;;;;1.02;0.20;;;7.60;99.90;;;;;;4927285;28;20031;-84
2023/11/10 05:57:00;;;;;;;0.88;0.10;;;7.60;99.90;;;;;;4921710;28;20028;-84
2023/11/10 05:59:27;;;;;;;2.15;0.20;;;7.50;99.90;;;;;;4922701;28;20480;-85
2023/11/10 06:01:53;;;;;;;0.47;0.13;;;7.50;99.90;;;;;;4922094;28;20031;-83
2023/11/10 06:04:19;;;;;;;1.10;0.20;;;7.50;99.90;;;;;;4922516;28;20078;-85
2023/11/10 06:06:45;;;;;;;2.25;0.20;;;7.40;99.90;;;;;;4927982;28;20044;-86
2023/11/10 06:09:11;;;;;;;1.20;0.20;;;7.30;99.90;;;;;;4927243;28;20031;-84
2023/11/10 06:11:37;;;;;;;0.75;0.13;;;7.30;99.90;;;;;;4923325;28;20044;-84
2023/11/10 06:14:03;;;;;;;1.60;0.20;;;7.20;99.90;;;;;;4922244;28;20028;-83
2023/11/10 06:16:29;;;;;;;1.67;0.13;;;7.20;99.90;;;;;;4925496;28;20153;-85
2023/11/10 06:18:55;;;;;;;2.28;0.15;;;7.10;99.90;;;;;;4940400;28;20081;-82
2023/11/10 06:21:23;;;;;;;1.48;0.20;;;7.10;99.90;;;;;;4923179;29;20086;-83
2023/11/10 06:23:53;;;;;;;2.55;0.10;;;7.20;99.90;;;;;;4934749;28;20370;-83
2023/11/10 06:26:23;;;;;;;1.40;0.15;;;7.20;99.90;;;;;;4931194;28;20468;-85
2023/11/10 06:28:51;;;;;;;0.68;0.10;;;7.20;99.90;;;;;;4922621;28;20024;-83
2023/11/10 06:31:25;;;;;;;2.60;0.10;;;7.20;99.90;;;;;;4922052;28;20050;-82
2023/11/10 06:33:51;;;;;;;2.03;0.17;;;7.20;99.90;;;;;;4935903;28;20062;-85
2023/11/10 06:36:18;;;;;;;1.30;0.10;;;7.20;99.90;;;;;;4923277;28;20028;-85
2023/11/10 06:38:45;;;;;;;1.10;0.10;;;7.20;99.90;;;;;;4926462;28;20040;-85
2023/11/10 06:41:11;;;;;;;1.23;0.43;;;7.20;99.90;;;;;;4927880;28;20054;-86
2023/11/10 06:43:42;;;;;;;3.70;0.20;;;7.10;99.90;;;;;;4924536;28;20381;-83
2023/11/10 06:46:17;;;;;;;1.05;0.10;;;7.00;99.90;;;;;;4926430;28;20131;-85
2023/11/10 06:48:43;;;;;;;1.42;0.20;;;7.00;99.90;;;;;;4936074;28;20035;-85
2023/11/10 06:51:09;;;;;;;1.25;0.20;;;6.90;99.90;;;;;;4925300;28;20077;-84
2023/11/10 06:53:35;;;;;;;0.80;0.20;;;6.80;99.90;;;;;;4922087;28;20038;-83
2023/11/10 06:56:00;;;;;;;2.67;0.20;;;6.80;99.90;;;;;;4920082;29;20111;-85
2023/11/10 06:58:26;;;;;;;0.80;0.20;;;6.70;99.90;;;;;;4920445;28;20063;-84
2023/11/10 07:00:53;;;;;;;1.80;0.20;;;6.70;99.90;;;;;;4931212;28;20446;-86
2023/11/10 07:03:19;;;;;;;2.55;0.30;;;6.60;99.90;;;;;;4917906;28;20032;-85
2023/11/10 07:05:45;;;;;;;2.47;0.30;;;6.60;99.90;;;;;;4922129;28;20116;-83
2023/11/10 07:08:11;;;;;;;0.98;0.20;;;6.60;99.90;;;;;;4922486;28;20131;-85
2023/11/10 07:10:41;;;;;;;1.00;0.25;;;6.60;99.90;;;;;;4927046;28;20044;-83
2023/11/10 07:13:07;;;;;;;;;;;6.60;99.90;;;;;;4924328;28;20400;-86
2023/11/10 07:15:33;;;;;;;0.85;0.20;;;6.60;99.90;;;;;;4936320;28;19911;-86
2023/11/10 07:18:00;;;;;;;1.55;0.40;;;6.60;99.90;;;;;;4922815;29;20078;-87
2023/11/10 07:20:28;;;;;;;1.08;0.10;;;6.60;99.90;;;;;;4921705;28;20035;-88
2023/11/10 07:22:54;;;;;;;1.30;0.10;;;6.60;99.90;;;;;;4917666;28;20361;-85
2023/11/10 07:25:20;;;;;;;1.52;0.20;;;6.60;99.90;;;;;;4924568;28;20031;-86
2023/11/10 07:27:46;;;;;;;0.98;0.13;;;6.60;99.90;;;;;;4938000;28;20051;-86
2023/11/10 07:30:11;;;;;;;1.27;0.20;;;6.60;99.90;;;;;;4934808;29;20067;-86
2023/11/10 07:32:37;;;;;;;0.60;0.13;;;6.70;99.90;;;;;;4947994;28;20066;-87
2023/11/10 07:35:05;;;;;;;0.70;0.20;;;6.70;99.90;;;;;;4924502;28;20031;-88
2023/11/10 07:37:35;;;;;;;1.38;0.20;;;6.70;99.90;;;;;;4934988;28;20036;-85
2023/11/10 07:40:05;;;;;;;1.65;0.20;;;6.90;99.90;;;;;;4924129;28;20055;-87
2023/11/10 07:42:33;;;;;;;;;;;7.00;99.90;;;;;;4924423;28;20485;-86
2023/11/10 07:44:59;;;;;;;1.80;0.20;;;7.00;99.90;;;;;;4922181;28;20352;-86
2023/11/10 07:47:24;;;;;;;1.05;0.20;;;7.10;99.90;;;;;;4923134;28;20111;-87
2023/11/10 07:49:50;;;;;;;2.75;0.30;;;7.10;99.90;;;;;;4923223;28;20024;-89
2023/11/10 07:52:17;;;;;;;1.88;0.30;;;7.20;99.90;;;;;;4923102;29;20024;-87
2023/11/10 07:54:43;;;;;;;1.48;0.82;;;7.20;99.90;;;;;;4921673;28;20032;-84
2023/11/10 07:57:09;;;;;;;1.60;0.30;;;7.30;99.90;;;;;;4922817;28;20087;-85
2023/11/10 07:59:35;;;;;;;1.45;0.20;;;7.40;99.90;;;;;;4924647;28;20028;-87
2023/11/10 08:02:01;;;;;;;1.08;0.17;;;7.50;99.90;;;;;;4924848;28;20067;-86
2023/11/10 08:04:27;;;;;;;1.48;0.20;;;7.50;99.90;;;;;;4921741;28;20127;-86
2023/11/10 08:06:53;;;;;;;2.88;0.25;;;7.60;99.90;;;;;;4939051;28;20123;-84
2023/11/10 08:09:21;;;;;;;3.25;0.20;;;7.50;99.90;;;;;;4936950;29;20023;-86
2023/11/10 08:11:47;;;;;;;1.48;0.22;;;7.50;99.90;;;;;;4924095;29;20039;-85
2023/11/10 08:14:13;;;;;;;7.45;0.93;;;7.50;99.90;;;;;;4928278;28;20046;-84
2023/11/10 08:16:40;;;;;;;2.13;0.10;;;7.50;99.90;;;;;;4925852;28;20043;-85
2023/11/10 08:19:06;;;;;;;1.73;0.20;;;7.50;99.90;;;;;;4937191;28;20024;-86
2023/11/10 08:21:32;;;;;;;1.80;0.13;;;7.60;99.90;;;;;;4923469;28;20070;-86
2023/11/10 08:23:58;;;;;;;1.35;0.20;;;7.50;99.90;;;;;;4927266;28;20055;-84
2023/11/10 08:26:24;;;;;;;1.70;0.25;;;7.50;99.90;;;;;;4925113;28;20035;-85
2023/11/10 08:28:49;;;;;;;1.70;0.20;;;7.50;99.90;;;;;;4926995;28;20041;-86
2023/11/10 08:31:15;;;;;;;3.60;0.47;;;7.60;99.90;;;;;;4926774;28;20032;-87
2023/11/10 08:33:41;;;;;;;2.65;0.35;;;7.60;99.90;;;;;;4940364;28;20036;-86
2023/11/10 08:36:06;;;;;;;0.95;0.10;;;7.70;99.90;;;;;;4921734;28;20035;-86
2023/11/10 08:38:32;;;;;;;4.20;0.22;;;7.60;99.90;;;;;;4938632;28;20039;-87
2023/11/10 08:40:59;;;;;;;2.60;0.20;;;7.60;99.90;;;;;;4924403;28;20462;-83
2023/11/10 08:43:26;;;;;;;0.93;0.10;;;7.70;99.90;;;;;;4935802;28;20032;-83
2023/11/10 08:45:52;;;;;;;2.05;0.43;;;7.70;99.90;;;;;;4922152;28;20510;-85
2023/11/10 08:48:18;;;;;;;0.60;0.10;;;7.70;99.90;;;;;;4927962;28;20026;-85
2023/11/10 08:50:43;;;;;;;1.80;0.20;;;7.70;99.90;;;;;;4924933;28;20530;-84
2023/11/10 08:53:09;;;;;;;3.78;0.20;;;7.80;99.90;;;;;;4924299;28;20107;-84
2023/11/10 08:55:38;;;;;;;3.50;0.20;;;7.80;99.90;;;;;;4921305;28;20028;-85
2023/11/10 08:58:04;;;;;;;2.55;0.20;;;7.80;99.90;;;;;;4922036;28;20040;-85
2023/11/10 09:00:29;;;;;;;1.85;0.30;;;7.80;99.90;;;;;;4921425;28;20040;-85
2023/11/10 09:02:56;;;;;;;2.70;0.20;;;7.80;99.90;;;;;;4921579;28;20029;-86
2023/11/10 09:05:22;;;;;;;1.90;0.25;;;7.70;99.90;;;;;;4915975;28;20027;-84
2023/11/10 09:07:48;;;;;;;2.55;0.20;;;7.80;99.90;;;;;;4917163;28;20048;-86
2023/11/10 09:10:14;;;;;;;1.70;0.22;;;7.80;99.90;;;;;;4930555;28;20436;-84
2023/11/10 09:12:43;;;;;;;2.83;0.40;;;7.70;99.90;;;;;;4922666;28;20445;-84
2023/11/10 09:15:14;;;;;;;2.17;0.13;;;7.80;99.90;;;;;;4921865;28;20039;-86
2023/11/10 09:17:40;;;;;;;5.05;0.20;;;7.80;99.90;;;;;;4918922;28;20039;-85
2023/11/10 09:20:07;;;;;;;2.40;0.30;;;7.80;99.90;;;;;;4930451;28;20484;-85
2023/11/10 09:22:35;;;;;;;2.03;0.15;;;7.80;99.90;;;;;;4915280;28;20028;-83
2023/11/10 09:25:02;;;;;;;1.42;0.13;;;7.80;99.90;;;;;;4905516;28;20038;-82
2023/11/10 09:27:28;;;;;;;4.15;0.52;;;8.00;99.90;;;;;;4914292;28;20043;-82
2023/11/10 09:29:54;;;;;;;4.07;0.20;;;8.10;99.90;;;;;;4928830;28;20399;-87
2023/11/10 09:32:19;;;;;;;2.00;0.20;;;8.10;99.90;;;;;;4915551;28;20167;-85
2023/11/10 09:34:45;;;;;;;1.75;0.20;;;8.20;99.90;;;;;;4930192;28;20653;-86
2023/11/10 09:37:11;;;;;;;1.30;0.30;;;8.20;99.90;;;;;;4920982;28;20024;-87
2023/11/10 09:39:37;;;;;;;2.58;0.47;;;8.30;99.90;;;;;;4931044;28;20036;-85
2023/11/10 09:42:08;;;;;;;1.30;0.20;;;8.30;99.90;;;;;;4918247;28;20048;-87
2023/11/10 09:44:42;;;;;;;3.65;0.20;;;8.30;99.90;;;;;;4930580;28;20031;-84
2023/11/10 09:47:09;;;;;;;2.17;0.20;;;8.40;99.90;;;;;;4916642;28;20055;-85
2023/11/10 09:49:35;;;;;;;2.38;0.20;;;8.30;99.90;;;;;;4917323;28;20028;-87
2023/11/10 09:52:03;;;;;;;3.03;0.30;;;8.30;99.90;;;;;;4922348;28;20032;-84
2023/11/10 09:54:32;;;;;;;2.95;0.30;;;8.20;99.90;;;;;;4914680;29;20032;-84
2023/11/10 09:56:59;;;;;;;2.00;0.22;;;8.20;99.90;;;;;;4931374;28;20030;-85
2023/11/10 09:59:28;;;;;;;2.25;0.25;;;8.30;99.90;;;;;;4916164;28;20067;-83
2023/11/10 10:01:54;;;;;;;2.58;0.20;;;8.40;99.90;;;;;;4932311;29;20487;-84
2023/11/10 10:04:20;;;;;;;3.15;0.20;;;8.30;99.90;;;;;;4917827;28;20032;-82
2023/11/10 10:06:53;;;;;;;3.35;0.30;;;8.40;99.90;;;;;;4920156;28;20051;-85
2023/11/10 10:09:18;;;;;;;4.55;0.40;;;8.50;99.90;;;;;;4920124;28;20023;-84
2023/11/10 10:11:45;;;;;;;4.65;0.30;;;8.50;99.90;;;;;;4916620;28;20035;-90
2023/11/10 10:14:12;;;;;;;2.35;0.30;;;8.60;99.90;;;;;;4917112;28;20028;-87
2023/11/10 10:16:38;;;;;;;2.50;0.30;;;8.60;99.90;;;;;;4921551;28;20032;-84
2023/11/10 10:19:05;;;;;;;2.40;0.30;;;8.60;99.90;;;;;;4914374;28;20047;-87
2023/11/10 10:21:41;;;;;;;6.07;0.50;;;8.60;99.90;;;;;;4913768;28;20356;-88
2023/11/10 10:24:07;;;;;;;2.08;0.30;;;8.50;99.90;;;;;;4921714;28;20035;-86
2023/11/10 10:26:33;;;;;;;2.53;0.38;;;8.50;99.90;;;;;;4904897;28;20039;-86
2023/11/10 10:29:03;;;;;;;1.23;0.20;;;8.40;99.90;;;;;;4919162;29;20035;-85
2023/11/10 10:31:29;;;;;;;2.00;0.28;;;8.40;99.90;;;;;;4919955;28;20032;-84
2023/11/10 10:33:55;;;;;;;2.47;0.20;;;8.30;99.90;;;;;;4929576;29;20042;-86
2023/11/10 10:36:21;;;;;;;2.53;0.20;;;8.40;99.90;;;;;;4918118;28;20032;-86
2023/11/10 10:38:53;;;;;;;1.45;0.20;;;8.40;99.90;;;;;;4931484;29;20075;-88
2023/11/10 10:41:25;;;;;;;1.83;0.20;;;8.40;99.90;;;;;;4921167;28;20044;-86
2023/11/10 10:43:52;;;;;;;1.83;0.28;;;8.40;99.90;;;;;;4903087;28;20032;-85
2023/11/10 10:46:21;;;;;;;2.00;0.25;;;8.40;99.90;;;;;;4916880;28;20212;-88
2023/11/10 10:48:52;;;;;;;1.83;0.30;;;8.30;99.90;;;;;;4918191;28;20043;-86
2023/11/10 10:51:19;;;;;;;2.70;0.20;;;8.40;99.90;;;;;;4917871;28;20032;-87
2023/11/10 10:53:47;;;;;;;2.15;0.20;;;8.40;99.90;;;;;;4916011;28;20042;-88
2023/11/10 10:56:14;;;;;;;4.60;0.20;;;8.40;99.90;;;;;;4921820;28;20483;-85
2023/11/10 10:58:43;;;;;;;3.10;0.30;;;8.40;99.90;;;;;;4917435;28;20040;-85
2023/11/10 11:01:10;;;;;;;2.13;0.30;;;8.30;99.90;;;;;;4918855;28;20039;-86
2023/11/10 11:04:04;;;;;;;3.10;0.25;;;8.40;99.90;;;;;;4921136;28;20476;-90
2023/11/10 11:06:33;;;;;;;3.42;0.20;;;8.40;99.90;;;;;;4918042;28;20135;-88
2023/11/10 11:09:19;;;;;;;1.52;0.13;;;8.40;99.90;;;;;;4917644;28;20532;-87
2023/11/10 11:11:56;;;;;;;3.67;0.28;;;8.40;99.90;;;;;;4916944;28;20070;-85
2023/11/10 11:15:00;;;;;;;2.00;0.20;;;8.40;99.90;;;;;;4927638;29;20032;-86
2023/11/10 11:17:50;;;;;;;3.85;0.30;;;8.40;99.90;;;;;;4909212;28;20100;-85
2023/11/10 11:20:16;;;;;;;1.35;0.28;;;8.40;99.90;;;;;;4922330;28;20403;-87
2023/11/10 11:22:44;;;;;;;1.23;0.20;;;8.30;99.90;;;;;;4917575;28;20071;-87
2023/11/10 11:25:12;;;;;;;1.75;0.10;;;8.40;99.90;;;;;;4915696;28;20274;-86
2023/11/10 11:27:38;;;;;;;2.03;0.10;;;8.40;99.90;;;;;;4911365;28;20044;-84
2023/11/10 11:30:13;;;;;;;1.63;0.20;;;8.30;99.90;;;;;;4920259;28;20031;-84
2023/11/10 11:32:42;;;;;;;2.13;0.50;;;8.20;99.90;;;;;;4913186;28;20036;-85
2023/11/10 11:35:17;;;;;;;2.28;0.20;;;8.20;99.90;;;;;;4919368;29;20070;-85
2023/11/10 11:37:45;;;;;;;2.30;0.20;;;8.10;99.90;;;;;;4915863;28;20051;-88
2023/11/10 11:40:11;;;;;;;1.67;0.15;;;8.20;99.90;;;;;;4919792;28;20020;-83
2023/11/10 11:42:39;;;;;;;0.55;0.10;;;8.10;99.90;;;;;;4911012;28;20072;-88
2023/11/10 11:45:15;;;;;;;2.55;0.20;;;8.00;99.90;;;;;;4899603;28;20028;-85
2023/11/10 11:47:42;;;;;;;0.63;0.10;;;8.00;99.90;;;;;;4889908;28;20062;-88
2023/11/10 11:50:11;;;;;;;3.03;0.25;;;8.00;99.90;;;;;;4883451;28;20048;-87
2023/11/10 11:52:38;;;;;;;3.20;0.28;;;7.90;99.90;;;;;;4884290;28;20044;-88
2023/11/10 11:55:04;;;;;;;0.60;0.10;;;7.90;99.90;;;;;;4884993;29;20032;-85
2023/11/10 11:57:35;;;;;;;2.58;0.20;;;7.90;99.90;;;;;;4904505;29;20025;-85
2023/11/10 12:00:08;;;;;;;3.17;0.25;;;7.80;99.90;;;;;;4884697;28;20503;-85
2023/11/10 12:02:40;;;;;;;1.35;0.20;;;7.90;99.90;;;;;;4908206;28;20036;-87
2023/11/10 12:05:07;;;;;;;1.48;0.30;;;7.80;99.90;;;;;;4894847;28;20115;-87
2023/11/10 12:07:34;;;;;;;1.55;0.30;;;7.80;99.90;;;;;;4883988;29;20051;-86
2023/11/10 12:09:59;;;;;;;2.10;0.30;;;7.80;99.90;;;;;;4904679;28;20051;-85
2023/11/10 12:12:26;;;;;;;1.67;0.30;;;7.80;99.90;;;;;;4884919;28;20025;-87
2023/11/10 12:14:52;;;;;;;1.60;0.40;;;7.90;99.90;;;;;;4924349;28;20036;-86
2023/11/10 12:17:18;;;;;;;3.88;0.60;;;7.90;99.90;;;;;;4899409;28;20111;-88
2023/11/10 12:19:44;;;;;;;2.35;0.40;;;7.90;99.90;;;;;;4905413;29;20074;-87
2023/11/10 12:22:09;;;;;;;3.10;0.30;;;8.00;99.90;;;;;;4888979;29;20036;-88
2023/11/10 12:24:35;;;;;;;2.15;0.20;;;8.00;99.90;;;;;;4884454;28;20044;-87
2023/11/10 12:27:02;;;;;;;2.80;0.30;;;8.00;99.90;;;;;;4890422;28;20047;-86
2023/11/10 12:29:29;;;;;;;1.65;0.20;;;8.10;99.90;;;;;;4885553;28;20127;-85
2023/11/10 12:31:56;;;;;;;1.35;0.20;;;8.10;99.90;;;;;;4914716;28;20536;-83
2023/11/10 12:34:26;;;;;;;2.17;0.40;;;8.10;99.90;;;;;;4886046;28;20554;-85
2023/11/10 12:36:52;;;;;;;2.25;0.40;;;8.10;99.90;;;;;;4903512;28;20082;-85
2023/11/10 12:39:19;;;;;;;1.60;0.20;;;8.20;99.90;;;;;;4889761;28;20024;-86
2023/11/10 12:41:52;;;;;;;1.35;0.20;;;8.20;99.90;;;;;;4902482;28;20068;-85
2023/11/10 12:44:20;;;;;;;3.47;0.30;;;8.20;99.90;;;;;;4897372;29;20024;-87
2023/11/10 12:46:58;;;;;;;3.92;0.38;;;8.20;99.90;;;;;;4890674;28;20039;-86
2023/11/10 12:49:26;;;;;;;1.73;0.30;;;8.20;99.90;;;;;;4914601;28;20034;-86
2023/11/10 12:51:53;;;;;;;2.55;0.20;;;8.20;99.90;;;;;;4889584;29;20028;-86
2023/11/10 12:54:24;;;;;;;1.67;0.20;;;8.20;99.90;;;;;;4889255;28;20032;-86
2023/11/10 12:56:51;;;;;;;1.15;0.20;;;8.30;99.90;;;;;;4897296;29;20115;-86
2023/11/10 12:59:43;;;;;;;2.72;0.20;;;8.20;99.90;;;;;;4904099;28;20036;-86